ESGR/KVB METAR and TAF weather

Enter ICAO airport designator
Station Type Date Time Source
ESGR METAR 2020/02/19 14:20 UTC NOAA

ESGR 191420Z AUTO 28006KT 250V310 9999 NCD 06/00 Q1002


Station Type Date Time Source
ESGR Decoded METAR 2020/02/19 14:20 UTC NOAA

Skovde Flygplats, Sweden (ESGR) 58-27N 013-58E 105M
Feb 19, 2020 - 09:20 AM EST / 2020.02.19 1420 UTC
Wind: from the W (280 degrees) at 7 MPH (6 KT) (direction variable):0
Visibility: greater than 7 mile(s):0
Temperature: 42 F (6 C)
Dew Point: 32 F (0 C)
Relative Humidity: 65%
Pressure (altimeter): 29.59 in. Hg (1002 hPa)
ob: ESGR 191420Z AUTO 28006KT 250V310 9999 NCD 06/00 Q1002
cycle: 14

Station Type Date Time Source
ESGR TAF 2009/06/28 04:50 UTC NOAA

METAR ESGR 280450Z AUTO VRB02KT 9999NDV NCD 17/12 Q1020

Example: see airport list